Time;durP1;ratioP1;P1;durP2;ratioP2;P2;SDS_P1;SDS_P2;PMS_P1;PMS_P2;Temp;Humidity;BMP_temperature;BMP_pressure;BME280_temperature;BME280_humidity;BME280_pressure;Samples;Min_cycle;Max_cycle;Signal;HPM_P1;HPM_P2
2022/04/02 00:02:05;;;;;;;5.35;2.30;;;;;;;3.54;51.87;98202.41;4982592;28;20145;-71
2022/04/02 00:04:31;;;;;;;7.20;2.60;;;;;;;3.45;52.24;98201.28;4971995;28;20063;-70
2022/04/02 00:06:58;;;;;;;6.55;2.72;;;;;;;3.46;52.32;98198.34;4939856;28;20065;-71
2022/04/02 00:09:25;;;;;;;5.35;2.53;;;;;;;3.38;52.75;98186.16;4970746;28;20093;-71
2022/04/02 00:11:51;;;;;;;8.30;2.50;;;;;;;3.32;52.58;98168.28;4972378;28;20486;-69
2022/04/02 00:14:17;;;;;;;12.82;2.60;;;;;;;3.44;52.67;98194.25;4973043;28;20578;-71
2022/04/02 00:16:44;;;;;;;6.15;2.28;;;;;;;3.46;52.97;98194.81;4972154;28;20093;-70
2022/04/02 00:19:10;;;;;;;6.60;2.95;;;;;;;3.48;53.04;98190.78;4972307;28;20482;-70
2022/04/02 00:21:38;;;;;;;5.88;2.40;;;;;;;3.46;53.00;98189.41;4972260;28;20066;-70
2022/04/02 00:24:06;;;;;;;7.05;2.60;;;;;;;3.36;53.46;98193.72;4966263;28;20047;-69
2022/04/02 00:26:33;;;;;;;7.88;2.65;;;;;;;3.34;53.59;98189.66;4970703;28;20054;-70
2022/04/02 00:29:00;;;;;;;6.15;2.47;;;;;;;3.37;53.63;98184.53;4969350;28;20054;-69
2022/04/02 00:31:29;;;;;;;5.93;2.67;;;;;;;3.34;53.88;98168.03;4959311;28;20051;-70
2022/04/02 00:33:56;;;;;;;8.02;2.72;;;;;;;3.35;53.94;98167.75;4971297;28;20050;-71
2022/04/02 00:36:22;;;;;;;6.07;2.60;;;;;;;3.30;54.18;98162.34;4971420;28;20043;-68
2022/04/02 00:38:49;;;;;;;6.28;2.42;;;;;;;3.32;54.32;98160.19;4971309;28;20130;-75
2022/04/02 00:41:16;;;;;;;7.00;2.67;;;;;;;3.26;54.48;98162.06;4972620;28;20093;-75
2022/04/02 00:43:55;;;;;;;6.05;2.55;;;;;;;3.28;54.43;98155.59;4973130;28;20514;-75
2022/04/02 00:46:21;;;;;;;6.60;2.70;;;;;;;3.26;54.22;98150.47;4970005;28;20423;-74
2022/04/02 00:48:49;;;;;;;7.68;2.65;;;;;;;3.22;54.47;98144.78;4968658;28;20106;-74
2022/04/02 00:51:16;;;;;;;6.55;2.70;;;;;;;3.25;54.52;98143.44;4968886;28;20042;-74
2022/04/02 00:53:45;;;;;;;9.00;3.10;;;;;;;3.21;54.55;98143.16;4972064;28;20435;-75
2022/04/02 00:56:13;;;;;;;7.28;3.10;;;;;;;3.20;54.46;98133.44;4971237;28;20130;-75
2022/04/02 00:58:41;;;;;;;10.60;3.28;;;;;;;3.17;54.66;98127.75;4970891;28;20078;-75
2022/04/02 01:01:13;;;;;;;6.55;2.65;;;;;;;3.16;54.54;98120.72;4970710;28;20157;-75
2022/04/02 01:03:40;;;;;;;7.17;2.90;;;;;;;3.22;54.34;98114.25;4971508;28;20097;-75
2022/04/02 01:06:09;;;;;;;7.68;2.97;;;;;;;3.23;54.16;98118.59;4953828;28;20053;-75
2022/04/02 01:08:38;;;;;;;5.85;2.70;;;;;;;3.20;54.11;98111.00;4987227;28;20058;-76
2022/04/02 01:11:05;;;;;;;6.10;2.78;;;;;;;3.18;53.94;98105.06;4968954;28;20047;-76
2022/04/02 01:13:32;;;;;;;8.20;3.58;;;;;;;3.17;54.10;98109.66;4987565;28;20061;-76
2022/04/02 01:16:04;;;;;;;6.82;2.72;;;;;;;3.15;54.15;98108.28;4971382;28;20051;-74
2022/04/02 01:18:30;;;;;;;7.38;3.13;;;;;;;3.19;53.83;98104.78;4970663;28;20058;-74
2022/04/02 01:20:58;;;;;;;7.80;3.10;;;;;;;3.19;53.77;98102.09;4954006;28;20051;-74
2022/04/02 01:23:32;;;;;;;8.65;3.30;;;;;;;3.19;53.67;98096.69;4969647;28;20081;-75
2022/04/02 01:26:11;;;;;;;10.38;3.15;;;;;;;3.22;53.35;98098.84;4970967;28;20113;-74
2022/04/02 01:28:53;;;;;;;8.23;3.10;;;;;;;3.24;53.33;98104.00;4970838;28;20051;-74
2022/04/02 01:31:23;;;;;;;6.38;2.83;;;;;;;3.18;53.58;98095.06;4970527;28;20043;-75
2022/04/02 01:33:51;;;;;;;7.43;3.22;;;;;;;3.17;53.38;98090.75;4986745;28;20055;-75
2022/04/02 01:36:20;;;;;;;7.15;3.00;;;;;;;3.12;53.52;98093.44;4949314;29;20528;-75
2022/04/02 01:39:00;;;;;;;7.72;2.90;;;;;;;3.14;53.41;98099.41;4953271;28;20058;-75
2022/04/02 01:41:29;;;;;;;6.80;2.63;;;;;;;2.97;53.83;98080.72;4951554;28;20051;-74
2022/04/02 01:43:56;;;;;;;11.32;2.85;;;;;;;3.16;53.47;98082.91;4986578;28;20073;-75
2022/04/02 01:46:22;;;;;;;7.00;2.72;;;;;;;3.20;53.13;98092.09;4970673;28;20066;-75
2022/04/02 01:48:50;;;;;;;6.93;2.80;;;;;;;3.10;53.17;98091.00;4955080;28;20085;-74
2022/04/02 01:51:17;;;;;;;7.20;2.70;;;;;;;3.05;53.22;98087.47;4970172;28;20047;-75
2022/04/02 01:53:43;;;;;;;6.90;2.65;;;;;;;3.07;53.13;98085.31;4961506;28;20056;-74
2022/04/02 01:56:12;;;;;;;6.53;2.70;;;;;;;3.08;53.09;98082.38;4935525;29;20109;-74
2022/04/02 01:58:42;;;;;;;7.57;2.55;;;;;;;3.14;52.88;98072.38;4951360;29;20079;-74
2022/04/02 02:01:13;;;;;;;6.03;2.70;;;;;;;3.13;52.77;98084.28;4986204;28;20043;-75
2022/04/02 02:03:40;;;;;;;7.80;2.50;;;;;;;3.07;52.79;98072.66;4969847;28;20138;-75
2022/04/02 02:06:07;;;;;;;6.75;2.40;;;;;;;3.06;52.76;98062.09;4973371;28;20400;-75
2022/04/02 02:08:33;;;;;;;6.60;2.60;;;;;;;3.07;52.67;98061.03;4987508;28;20507;-75
2022/04/02 02:11:11;;;;;;;6.00;2.38;;;;;;;3.08;52.68;98063.47;4970181;28;20047;-75
2022/04/02 02:14:09;;;;;;;5.72;2.60;;;;;;;3.06;52.72;98049.41;4931904;28;20058;-75
2022/04/02 02:16:39;;;;;;;6.35;2.35;;;;;;;3.07;52.47;98036.72;4970426;28;20109;-75
2022/04/02 02:19:05;;;;;;;5.32;2.42;;;;;;;3.10;52.54;98049.69;4972626;28;20427;-74
2022/04/02 02:21:32;;;;;;;5.85;2.40;;;;;;;3.09;52.27;98056.97;4979107;28;20144;-73
2022/04/02 02:23:58;;;;;;;6.38;2.50;;;;;;;3.04;52.27;98059.66;4973181;28;20102;-75
2022/04/02 02:26:25;;;;;;;7.20;2.70;;;;;;;3.07;52.58;98061.03;4988894;28;20419;-72
2022/04/02 02:28:52;;;;;;;5.85;2.53;;;;;;;3.01;52.49;98067.50;4967141;28;20520;-73
2022/04/02 02:31:29;;;;;;;;;;;;;;;3.04;52.53;98072.38;4957758;28;20069;-74
2022/04/02 02:36:48;;;;;;;5.57;2.60;;;;;;;2.82;52.78;98068.00;4973459;28;20507;-73
2022/04/02 02:39:15;;;;;;;5.72;2.28;;;;;;;2.89;52.56;98073.94;4981416;28;20054;-74
2022/04/02 02:41:48;;;;;;;7.15;2.22;;;;;;;3.00;52.43;98071.28;4973772;28;20057;-74
2022/04/02 02:44:27;;;;;;;5.55;2.25;;;;;;;3.06;52.22;98076.44;4954820;28;20471;-73
2022/04/02 02:47:07;;;;;;;5.78;2.38;;;;;;;3.00;52.20;98069.38;4954453;28;20438;-74
2022/04/02 02:49:36;;;;;;;5.75;2.50;;;;;;;3.00;52.32;98085.59;4964001;28;20066;-74
2022/04/02 02:52:06;;;;;;;5.20;2.10;;;;;;;2.86;52.45;98088.00;4949424;28;20147;-74
2022/04/02 02:54:33;;;;;;;5.95;2.30;;;;;;;2.87;52.80;98089.59;4969938;28;20046;-73
2022/04/02 02:57:01;;;;;;;6.22;2.60;;;;;;;2.83;52.94;98093.94;4972785;28;20039;-75
2022/04/02 02:59:28;;;;;;;6.35;2.45;;;;;;;2.90;53.01;98093.69;4972502;28;20051;-74
2022/04/02 03:01:55;;;;;;;;;;;;;;;2.91;52.99;98087.19;4956757;28;20055;-74
2022/04/02 03:04:23;;;;;;;7.15;2.28;;;;;;;2.94;52.72;98092.84;4955297;28;19997;-74
2022/04/02 03:06:55;;;;;;;7.07;2.50;;;;;;;2.82;53.00;98092.31;4991958;28;20053;-71
2022/04/02 03:09:25;;;;;;;6.25;2.40;;;;;;;2.91;53.10;98088.00;4987448;28;20126;-71
2022/04/02 03:11:51;;;;;;;6.43;2.63;;;;;;;2.85;53.22;98089.06;4969312;28;20139;-72
2022/04/02 03:14:19;;;;;;;7.40;2.65;;;;;;;2.88;53.52;98085.00;4972767;28;20054;-72
2022/04/02 03:16:45;;;;;;;7.20;2.40;;;;;;;2.80;53.76;98086.34;4974492;28;20067;-72
2022/04/02 03:19:16;;;;;;;6.70;2.40;;;;;;;2.77;54.11;98084.16;4968637;28;20061;-72
2022/04/02 03:21:42;;;;;;;5.88;2.30;;;;;;;2.84;54.03;98069.34;4977825;28;20058;-73
2022/04/02 03:24:09;;;;;;;6.47;2.45;;;;;;;2.75;54.27;98065.56;4965477;28;20043;-71
2022/04/02 03:26:38;;;;;;;6.53;2.35;;;;;;;2.68;54.61;98064.97;4971661;28;20141;-71
2022/04/02 03:29:15;;;;;;;12.77;5.82;;;;;;;2.66;54.88;98050.94;4956680;28;20137;-70
2022/04/02 03:31:44;;;;;;;13.60;5.82;;;;;;;2.58;55.05;98043.38;4970324;28;20304;-76
2022/04/02 03:34:10;;;;;;;14.68;6.22;;;;;;;2.71;54.96;98052.84;4967863;28;20054;-75
2022/04/02 03:36:37;;;;;;;11.45;4.70;;;;;;;2.65;54.92;98058.25;4972040;28;20134;-76
2022/04/02 03:39:05;;;;;;;8.82;3.65;;;;;;;2.57;55.36;98056.06;4970422;28;20419;-75
2022/04/02 03:41:31;;;;;;;10.48;3.45;;;;;;;2.57;55.42;98055.22;4973356;28;20089;-76
2022/04/02 03:44:01;;;;;;;7.55;2.83;;;;;;;2.52;55.61;98053.34;4968165;28;20066;-75
2022/04/02 03:49:16;;;;;;;5.65;2.40;;;;;;;2.58;55.45;98057.66;4977432;28;20190;-77
2022/04/02 03:51:43;;;;;;;6.22;2.58;;;;;;;2.61;55.48;98061.75;4971352;28;20070;-76
2022/04/02 03:54:15;;;;;;;7.07;2.42;;;;;;;2.56;55.71;98067.91;4971883;28;20054;-76
2022/04/02 03:56:47;;;;;;;14.50;6.93;;;;;;;2.50;55.80;98069.00;4971371;28;20102;-75
2022/04/02 03:59:16;;;;;;;11.40;5.13;;;;;;;2.60;55.56;98065.50;4970714;28;20050;-75
2022/04/02 04:01:46;;;;;;;9.15;3.90;;;;;;;2.67;55.27;98063.38;4982192;28;20082;-75
2022/04/02 04:04:14;;;;;;;;;;;;;;;2.65;55.41;98068.22;4947111;28;20057;-75
2022/04/02 04:06:41;;;;;;;6.22;2.70;;;;;;;2.63;55.28;98067.69;4986051;28;20386;-77
2022/04/02 04:09:09;;;;;;;5.90;2.40;;;;;;;2.59;55.49;98078.19;4971123;28;20549;-76
2022/04/02 04:11:36;;;;;;;6.28;2.38;;;;;;;2.53;55.35;98069.25;4970853;28;20097;-75
2022/04/02 04:14:02;;;;;;;7.15;2.30;;;;;;;2.52;55.61;98080.31;4980757;28;20137;-76
2022/04/02 04:16:29;;;;;;;9.93;2.80;;;;;;;2.52;55.43;98069.53;4971580;28;20042;-75
2022/04/02 04:18:56;;;;;;;7.22;2.80;;;;;;;2.60;55.47;98063.59;4975786;28;20073;-75
2022/04/02 04:21:22;;;;;;;8.20;2.70;;;;;;;2.52;55.57;98050.66;4971936;28;20179;-74
2022/04/02 04:23:52;;;;;;;5.93;2.35;;;;;;;2.52;55.57;98062.22;4977636;28;20047;-75
2022/04/02 04:26:19;;;;;;;9.85;2.85;;;;;;;2.47;55.80;98054.13;4969703;28;20082;-78
2022/04/02 04:28:46;;;;;;;8.70;3.78;;;;;;;2.39;55.94;98063.53;4952573;28;20055;-76
2022/04/02 04:31:17;;;;;;;9.13;3.75;;;;;;;2.40;56.16;98057.06;4972564;28;20056;-76
2022/04/02 04:33:45;;;;;;;13.70;3.40;;;;;;;2.42;55.96;98048.72;4969965;28;20097;-76
2022/04/02 04:36:12;;;;;;;7.73;2.87;;;;;;;2.37;56.13;98044.13;4969801;28;20062;-75
2022/04/02 04:38:38;;;;;;;7.53;3.00;;;;;;;2.36;56.18;98025.50;4982261;28;20802;-76
2022/04/02 04:41:11;;;;;;;7.93;2.92;;;;;;;2.49;55.87;98034.97;4970860;28;20082;-76
2022/04/02 04:43:41;;;;;;;6.85;2.95;;;;;;;2.52;55.64;98024.47;4972873;28;20186;-76
2022/04/02 04:46:08;;;;;;;7.35;2.70;;;;;;;2.37;56.13;98032.50;4971118;28;20053;-77
2022/04/02 04:48:38;;;;;;;6.50;2.58;;;;;;;2.31;56.40;98037.06;4987376;28;20051;-76
2022/04/02 04:51:05;;;;;;;7.10;2.65;;;;;;;2.34;56.48;98038.44;4969775;28;20485;-78
2022/04/02 04:53:34;;;;;;;7.50;2.80;;;;;;;2.37;56.40;98032.50;4977505;28;20050;-78
2022/04/02 04:56:01;;;;;;;;;;;;;;;2.38;56.48;98026.03;4954946;28;20542;-78
2022/04/02 04:58:30;;;;;;;6.93;2.70;;;;;;;2.29;56.48;98014.16;4970686;28;19980;-77
2022/04/02 05:01:01;;;;;;;6.68;2.70;;;;;;;2.39;56.38;98030.34;4959174;28;20058;-76
2022/04/02 05:03:31;;;;;;;7.70;3.08;;;;;;;2.43;56.47;98038.72;4960902;28;20389;-76
2022/04/02 05:05:59;;;;;;;7.50;2.85;;;;;;;2.45;56.60;98025.78;4953585;28;20526;-76
2022/04/02 05:08:25;;;;;;;6.03;2.55;;;;;;;2.45;56.67;98032.00;4969164;28;20455;-76
2022/04/02 05:10:57;;;;;;;8.23;2.40;;;;;;;2.54;56.61;98029.59;4977974;28;20047;-76
2022/04/02 05:13:32;;;;;;;10.80;2.85;;;;;;;2.51;56.65;98036.34;4961825;28;20131;-76
2022/04/02 05:15:59;;;;;;;9.60;2.75;;;;;;;2.54;56.54;98041.19;4952625;28;20105;-74
2022/04/02 05:18:26;;;;;;;9.57;2.88;;;;;;;2.47;56.83;98020.94;4964947;28;20558;-76
2022/04/02 05:20:53;;;;;;;14.07;5.63;;;;;;;2.54;56.91;98022.31;4975017;28;20050;-77
2022/04/02 05:23:20;;;;;;;14.85;5.25;;;;;;;2.64;56.61;98020.72;4937616;28;20053;-76
2022/04/02 05:25:51;;;;;;;11.20;4.05;;;;;;;2.61;56.54;98011.25;4957619;28;20043;-77
2022/04/02 05:28:18;;;;;;;8.48;3.28;;;;;;;2.61;56.90;98027.44;4978971;28;20046;-76
2022/04/02 05:30:45;;;;;;;9.70;3.40;;;;;;;2.59;56.84;98023.41;4977777;28;20055;-76
2022/04/02 05:33:12;;;;;;;7.53;3.15;;;;;;;2.64;56.94;98015.31;4970706;28;20053;-77
2022/04/02 05:35:38;;;;;;;6.65;2.83;;;;;;;2.78;56.52;98018.31;4941440;28;20050;-76
2022/04/02 05:38:04;;;;;;;10.65;3.38;;;;;;;2.69;56.68;98015.31;4970798;28;20081;-76
2022/04/02 05:40:30;;;;;;;7.97;3.00;;;;;;;2.83;56.38;98015.63;4965202;28;20106;-76
2022/04/02 05:42:57;;;;;;;6.13;2.92;;;;;;;2.85;56.35;98016.19;4957681;28;20496;-76
2022/04/02 05:45:23;;;;;;;6.63;2.80;;;;;;;2.74;56.76;98015.34;4970052;28;20038;-77
2022/04/02 05:47:51;;;;;;;8.00;3.13;;;;;;;2.75;56.60;98008.88;4953475;28;20526;-76
2022/04/02 05:50:18;;;;;;;;;;;;;;;2.72;56.85;97995.09;4970709;28;20078;-78
2022/04/02 05:52:45;;;;;;;11.52;2.92;;;;;;;2.82;56.38;98009.41;4971066;28;20267;-76
2022/04/02 05:55:12;;;;;;;7.60;3.00;;;;;;;2.80;56.20;98000.78;4974055;28;20288;-76
2022/04/02 05:57:40;;;;;;;7.40;2.97;;;;;;;2.72;56.60;97997.78;4982405;28;20046;-77
2022/04/02 06:00:08;;;;;;;8.95;3.03;;;;;;;2.82;56.43;98000.53;4993874;28;20309;-77
2022/04/02 06:02:40;;;;;;;9.18;3.08;;;;;;;2.83;56.44;97994.84;4966260;28;20039;-76
2022/04/02 06:05:08;;;;;;;6.85;2.78;;;;;;;2.81;56.36;97986.19;4967687;28;20504;-75
2022/04/02 06:07:34;;;;;;;7.40;3.00;;;;;;;2.90;56.36;97989.19;4974889;28;20137;-77
2022/04/02 06:10:02;;;;;;;8.07;3.15;;;;;;;2.82;56.66;97984.31;4967551;28;20050;-77
2022/04/02 06:12:28;;;;;;;;;;;;;;;2.96;56.22;97976.50;4982106;28;20131;-76
2022/04/02 06:14:54;;;;;;;8.55;3.17;;;;;;;2.97;56.00;97978.94;4973983;28;19926;-75
2022/04/02 06:17:21;;;;;;;7.68;3.33;;;;;;;2.94;56.36;97970.56;4977375;28;20168;-76
2022/04/02 06:19:47;;;;;;;8.30;3.22;;;;;;;2.95;56.22;97959.47;4952597;28;20101;-77
2022/04/02 06:22:14;;;;;;;8.20;3.22;;;;;;;2.86;56.67;97966.50;4971604;28;20062;-76
2022/04/02 06:24:41;;;;;;;9.05;2.97;;;;;;;2.83;57.15;97965.13;4980887;28;20043;-76
2022/04/02 06:27:07;;;;;;;7.88;3.40;;;;;;;2.84;57.03;97968.66;4964277;28;20049;-75
2022/04/02 06:29:33;;;;;;;8.02;3.47;;;;;;;2.87;56.77;97951.94;4972085;28;20621;-76
2022/04/02 06:32:00;;;;;;;8.50;3.75;;;;;;;2.78;57.08;97965.16;4971222;28;20078;-76
2022/04/02 06:34:26;;;;;;;8.38;3.13;;;;;;;2.92;56.95;97973.50;4972822;28;20051;-76
2022/04/02 06:36:53;;;;;;;8.80;3.17;;;;;;;2.88;57.05;97967.03;4972482;28;20061;-76
2022/04/02 06:39:20;;;;;;;8.27;3.38;;;;;;;3.01;56.68;97956.78;4980694;28;20046;-76
2022/04/02 06:41:47;;;;;;;8.73;3.20;;;;;;;2.91;56.66;97936.81;4988795;28;20054;-76
2022/04/02 06:44:13;;;;;;;7.35;3.08;;;;;;;2.94;56.88;97936.25;4973523;28;20043;-76
2022/04/02 06:46:39;;;;;;;8.02;3.20;;;;;;;2.85;56.85;97921.69;4961421;28;20047;-75
2022/04/02 06:49:06;;;;;;;8.02;3.17;;;;;;;3.04;56.49;97937.34;4973384;28;20085;-77
2022/04/02 06:51:32;;;;;;;8.18;3.35;;;;;;;3.07;56.28;97928.69;4955953;28;20113;-77
2022/04/02 06:53:59;;;;;;;11.18;3.33;;;;;;;3.05;56.46;97920.06;4973139;28;20050;-75
2022/04/02 06:56:26;;;;;;;11.77;3.22;;;;;;;3.17;56.24;97903.56;4972473;28;20052;-74
2022/04/02 06:58:52;;;;;;;8.48;3.10;;;;;;;3.23;55.87;97887.06;4988562;28;20145;-76
2022/04/02 07:01:18;;;;;;;8.55;3.10;;;;;;;3.25;55.75;97900.31;4970627;28;20082;-76
2022/04/02 07:03:44;;;;;;;9.15;3.17;;;;;;;3.20;55.99;97898.44;4971033;28;20609;-76
2022/04/02 07:06:10;;;;;;;9.02;3.30;;;;;;;3.24;56.11;97882.50;4968953;28;20083;-75
2022/04/02 07:08:37;;;;;;;7.22;3.10;;;;;;;3.15;56.40;97878.72;4965323;28;20313;-74
2022/04/02 07:11:03;;;;;;;8.00;3.63;;;;;;;3.31;56.23;97874.13;4988010;28;20509;-74
2022/04/02 07:13:31;;;;;;;8.32;3.40;;;;;;;3.35;55.99;97875.16;4972151;28;20396;-75
2022/04/02 07:15:57;;;;;;;7.80;2.85;;;;;;;3.28;56.45;97875.47;4969332;28;20102;-74
2022/04/02 07:18:24;;;;;;;7.75;3.35;;;;;;;3.34;56.30;97870.84;4971484;28;20061;-75
2022/04/02 07:20:51;;;;;;;7.57;3.30;;;;;;;3.37;56.25;97881.94;4971654;28;20070;-75
2022/04/02 07:23:18;;;;;;;7.65;3.35;;;;;;;3.42;56.05;97872.97;4963951;28;20043;-75
2022/04/02 07:25:49;;;;;;;9.32;3.47;;;;;;;3.44;56.08;97867.31;4939515;28;20054;-76
2022/04/02 07:28:15;;;;;;;8.32;3.40;;;;;;;3.54;56.07;97875.41;4971349;28;20419;-76
2022/04/02 07:30:43;;;;;;;9.38;3.70;;;;;;;3.63;55.72;97879.13;4974273;28;20134;-76
2022/04/02 07:33:18;;;;;;;8.15;3.45;;;;;;;3.50;56.22;97871.59;4954535;28;20039;-71
2022/04/02 07:35:53;;;;;;;8.07;3.40;;;;;;;3.56;56.04;97878.63;4964960;28;20045;-72
2022/04/02 07:38:22;;;;;;;9.10;4.03;;;;;;;3.59;55.95;97877.25;4979516;28;20055;-77
2022/04/02 07:41:04;;;;;;;9.18;4.05;;;;;;;3.46;56.34;97852.44;4971522;28;20039;-76
2022/04/02 07:43:40;;;;;;;8.52;3.92;;;;;;;3.52;56.45;97859.44;4966813;28;20050;-77
2022/04/02 07:46:14;;;;;;;9.38;3.70;;;;;;;3.39;56.86;97851.91;4939567;28;20507;-77
2022/04/02 07:48:43;;;;;;;8.93;3.75;;;;;;;3.55;56.67;97855.38;4970853;28;20050;-77
2022/04/02 07:51:12;;;;;;;8.30;3.53;;;;;;;3.64;56.37;97864.53;4954232;28;20046;-77
2022/04/02 07:53:44;;;;;;;8.40;3.42;;;;;;;3.63;56.41;97859.41;4968684;28;20047;-77
2022/04/02 07:56:14;;;;;;;11.80;3.53;;;;;;;3.52;56.15;97834.31;4971262;28;20522;-78
2022/04/02 07:58:46;;;;;;;6.65;2.85;;;;;;;3.58;56.33;97843.19;4979328;28;20133;-79
2022/04/02 08:01:17;;;;;;;8.93;3.50;;;;;;;3.60;56.32;97846.47;4970753;28;20471;-79
2022/04/02 08:03:46;;;;;;;8.25;3.20;;;;;;;3.60;56.36;97836.44;4968602;28;20054;-78
2022/04/02 08:06:15;;;;;;;7.38;3.20;;;;;;;3.59;56.31;97834.00;4952599;28;20057;-77
2022/04/02 08:08:42;;;;;;;7.10;3.17;;;;;;;3.66;56.29;97824.50;4970900;28;20415;-77
2022/04/02 08:11:10;;;;;;;8.25;3.30;;;;;;;3.65;56.25;97825.59;4958024;28;20140;-78
2022/04/02 08:13:37;;;;;;;7.55;3.10;;;;;;;3.62;56.46;97830.78;4961417;28;20051;-78
2022/04/02 08:16:04;;;;;;;15.70;4.13;;;;;;;3.59;56.57;97818.59;4969299;28;20047;-77
2022/04/02 08:18:33;;;;;;;7.90;3.28;;;;;;;3.63;56.44;97819.66;4945942;28;20129;-78
2022/04/02 08:20:59;;;;;;;;;;;;;;;3.68;56.49;97802.63;4972163;28;20512;-77
2022/04/02 08:23:34;;;;;;;6.88;2.92;;;;;;;3.78;56.06;97796.34;4969353;28;19926;-76
2022/04/02 08:26:23;;;;;;;9.23;2.80;;;;;;;3.80;55.74;97799.56;4982005;28;20531;-78
2022/04/02 08:29:07;;;;;;;8.82;2.97;;;;;;;3.83;55.82;97801.75;4971995;28;20046;-78
2022/04/02 08:31:51;;;;;;;8.65;2.95;;;;;;;3.76;55.98;97795.81;4969735;28;20424;-77
2022/04/02 08:34:30;;;;;;;7.10;2.85;;;;;;;3.75;56.04;97803.13;4970677;28;20057;-76
2022/04/02 08:37:07;;;;;;;7.22;2.88;;;;;;;3.70;56.06;97797.75;4960907;28;20082;-77
2022/04/02 08:39:43;;;;;;;8.55;3.50;;;;;;;3.71;56.01;97788.53;4964493;28;20046;-78
2022/04/02 08:42:47;;;;;;;7.43;2.97;;;;;;;3.61;55.98;97805.63;4965676;28;20051;-74
2022/04/02 08:45:14;;;;;;;8.85;3.03;;;;;;;3.67;56.21;97790.19;4966857;28;20051;-74
2022/04/02 08:48:19;;;;;;;6.60;2.90;;;;;;;3.51;56.66;97778.63;4953405;28;20074;-75
2022/04/02 08:50:48;;;;;;;7.53;2.97;;;;;;;3.46;56.77;97763.28;4973737;28;20051;-75
2022/04/02 08:53:22;;;;;;;7.05;2.75;;;;;;;3.52;56.41;97745.94;4969139;28;20047;-76
2022/04/02 08:55:50;;;;;;;6.30;2.80;;;;;;;3.58;56.50;97765.66;4962153;28;20060;-77
2022/04/02 08:58:39;;;;;;;7.45;2.90;;;;;;;3.42;56.72;97751.41;4968316;28;20503;-76
2022/04/02 09:01:08;;;;;;;6.20;2.53;;;;;;;3.55;56.87;97747.28;4971157;28;20058;-77
2022/04/02 09:04:18;;;;;;;6.28;2.97;;;;;;;3.55;56.75;97756.19;4972364;28;20046;-76
2022/04/02 09:07:40;;;;;;;7.85;3.08;;;;;;;3.54;56.67;97745.69;4972694;28;20046;-74
2022/04/02 09:10:48;;;;;;;6.88;2.85;;;;;;;3.55;56.59;97750.00;4969628;28;20545;-73
2022/04/02 09:13:38;;;;;;;7.53;2.90;;;;;;;3.53;56.91;97744.84;4967213;28;20118;-74
2022/04/02 09:16:06;;;;;;;8.70;2.87;;;;;;;3.60;56.83;97738.34;4969673;28;20054;-73
2022/04/02 09:18:39;;;;;;;7.35;3.13;;;;;;;3.60;56.74;97731.03;4972330;28;20138;-74
2022/04/02 09:21:31;;;;;;;7.30;3.20;;;;;;;3.66;56.84;97734.53;4970340;28;20145;-74
2022/04/02 09:24:04;;;;;;;8.38;3.00;;;;;;;3.54;57.16;97730.25;4965425;28;20054;-76
2022/04/02 09:27:14;;;;;;;6.65;2.67;;;;;;;3.66;56.85;97713.69;4953923;28;20586;-74
2022/04/02 09:29:56;;;;;;;6.80;2.80;;;;;;;3.77;56.23;97711.75;4941217;28;20080;-74
2022/04/02 09:33:13;;;;;;;6.72;2.85;;;;;;;3.81;56.32;97707.38;4970811;28;20062;-74
2022/04/02 09:36:17;;;;;;;9.85;2.95;;;;;;;3.78;56.44;97690.91;4965869;28;20137;-73
2022/04/02 09:39:05;;;;;;;7.10;2.75;;;;;;;3.75;56.17;97684.19;4971390;28;20137;-73
2022/04/02 09:41:45;;;;;;;7.75;3.03;;;;;;;3.75;56.40;97686.91;4953278;28;20057;-73
2022/04/02 09:44:33;;;;;;;7.07;3.08;;;;;;;3.74;56.18;97685.25;4970540;28;20106;-74
2022/04/02 09:47:05;;;;;;;6.78;2.80;;;;;;;3.67;56.56;97673.97;4982901;28;20114;-72
2022/04/02 09:49:47;;;;;;;8.55;3.22;;;;;;;3.74;56.67;97666.34;4966557;28;20511;-73
2022/04/02 09:52:20;;;;;;;7.10;2.85;;;;;;;3.68;56.53;97645.84;4972993;28;20070;-72
2022/04/02 09:55:01;;;;;;;6.97;3.00;;;;;;;3.87;56.55;97667.59;4977910;28;20419;-73
2022/04/02 09:57:37;;;;;;;7.80;3.08;;;;;;;3.91;56.30;97660.53;4971788;28;20459;-73
2022/04/02 10:00:06;;;;;;;8.80;2.90;;;;;;;3.84;56.58;97649.25;4971035;28;20102;-73
2022/04/02 10:03:05;;;;;;;8.43;2.83;;;;;;;3.83;56.76;97669.25;4970593;28;20050;-73
2022/04/02 10:05:45;;;;;;;7.40;2.97;;;;;;;3.79;56.39;97649.28;4970283;28;20157;-73
2022/04/02 10:08:26;;;;;;;6.65;2.70;;;;;;;3.80;56.38;97637.38;4970855;28;20050;-72
2022/04/02 10:10:56;;;;;;;6.85;2.85;;;;;;;3.81;56.39;97649.78;4984073;28;20054;-73
2022/04/02 10:13:23;;;;;;;8.18;2.90;;;;;;;3.74;56.37;97670.94;4960900;28;20043;-73
2022/04/02 10:15:52;;;;;;;6.32;2.80;;;;;;;3.69;56.40;97659.09;4953371;28;20138;-73
2022/04/02 10:18:22;;;;;;;5.18;2.58;;;;;;;3.68;56.48;97653.97;4978606;28;20137;-75
2022/04/02 10:20:51;;;;;;;5.65;2.50;;;;;;;3.69;56.58;97645.56;4968636;28;20113;-74
2022/04/02 10:23:21;;;;;;;6.22;2.72;;;;;;;3.67;56.64;97630.72;4969082;28;20043;-74
2022/04/02 10:26:01;;;;;;;9.68;3.08;;;;;;;3.65;56.52;97627.50;4966235;28;20066;-73
2022/04/02 10:28:30;;;;;;;8.95;2.90;;;;;;;3.70;56.56;97624.75;4965475;28;20095;-74
2022/04/02 10:30:58;;;;;;;6.40;2.80;;;;;;;3.66;56.64;97619.09;4937420;28;20042;-74
2022/04/02 10:33:28;;;;;;;6.25;2.65;;;;;;;3.61;57.00;97621.06;4965864;28;20506;-73
2022/04/02 10:35:56;;;;;;;7.25;3.08;;;;;;;3.58;57.13;97608.09;4952357;28;20045;-73
2022/04/02 10:38:33;;;;;;;6.78;2.85;;;;;;;3.63;57.00;97608.84;4964420;28;20059;-74
2022/04/02 10:41:04;;;;;;;7.10;3.00;;;;;;;3.65;57.03;97603.97;4986897;28;20078;-73
2022/04/02 10:43:44;;;;;;;6.68;2.80;;;;;;;3.68;56.85;97611.53;4974621;28;20062;-74
2022/04/02 10:46:15;;;;;;;5.35;2.40;;;;;;;3.61;56.93;97599.44;4974585;28;20074;-72
2022/04/02 10:48:55;;;;;;;5.57;2.47;;;;;;;3.58;56.84;97608.91;4963908;28;20057;-76
2022/04/02 10:51:23;;;;;;;6.32;2.65;;;;;;;3.58;57.07;97605.38;4957129;28;20555;-75
2022/04/02 10:53:59;;;;;;;7.40;2.75;;;;;;;3.61;57.02;97613.72;4964705;28;20086;-75
2022/04/02 10:56:32;;;;;;;8.23;3.00;;;;;;;3.46;57.40;97605.75;4973688;28;20049;-75
2022/04/02 10:58:59;;;;;;;5.95;2.45;;;;;;;3.43;57.72;97622.53;4956512;28;20059;-76
2022/04/02 11:01:26;;;;;;;6.00;2.65;;;;;;;3.46;57.47;97625.47;4972096;28;20133;-75
2022/04/02 11:03:55;;;;;;;7.43;2.90;;;;;;;3.45;57.56;97633.84;4972567;28;20046;-75
2022/04/02 11:06:46;;;;;;;6.05;2.72;;;;;;;3.44;57.89;97654.69;4973711;28;20055;-73
2022/04/02 11:09:27;;;;;;;8.25;3.33;;;;;;;3.31;58.50;97660.69;4971813;28;20059;-72
2022/04/02 11:11:54;;;;;;;6.55;2.78;;;;;;;3.41;58.38;97676.81;4968406;28;20058;-73
2022/04/02 11:14:21;;;;;;;6.75;2.70;;;;;;;3.35;58.69;97667.94;4970980;28;20055;-73
2022/04/02 11:16:48;;;;;;;6.23;2.90;;;;;;;3.42;58.52;97664.13;4969864;28;20510;-70
2022/04/02 11:22:04;;;;;;;7.85;3.00;;;;;;;3.33;59.44;97672.03;4972168;28;20435;-71
2022/04/02 11:24:40;;;;;;;7.57;3.10;;;;;;;3.29;59.90;97662.88;4973428;28;20078;-73
2022/04/02 11:27:11;;;;;;;7.25;3.15;;;;;;;3.23;60.24;97659.41;4972280;28;20054;-73
2022/04/02 11:29:46;;;;;;;7.47;3.30;;;;;;;3.31;60.03;97652.59;4971520;28;20069;-76
2022/04/02 11:32:15;;;;;;;7.82;3.40;;;;;;;3.34;60.01;97662.84;4972806;28;20047;-75
2022/04/02 11:34:42;;;;;;;9.63;3.40;;;;;;;3.28;60.45;97662.06;4970987;28;20047;-76
2022/04/02 11:37:13;;;;;;;9.60;3.83;;;;;;;3.28;60.51;97661.22;4954191;28;20055;-73
2022/04/02 11:39:49;;;;;;;9.18;3.58;;;;;;;3.36;60.32;97669.59;4969962;28;20047;-73
2022/04/02 11:42:22;;;;;;;9.00;3.63;;;;;;;3.40;60.31;97669.81;4967427;28;20495;-73
2022/04/02 11:44:52;;;;;;;6.93;3.17;;;;;;;3.37;60.59;97643.38;4973021;28;20050;-74
2022/04/02 11:47:26;;;;;;;8.52;3.33;;;;;;;3.34;60.71;97639.31;4972555;28;20047;-74
2022/04/02 11:50:02;;;;;;;9.77;3.50;;;;;;;3.39;60.85;97627.69;4962964;28;20054;-75
2022/04/02 11:52:49;;;;;;;9.48;3.80;;;;;;;3.32;61.05;97621.78;4987457;28;20055;-76
2022/04/02 11:55:16;;;;;;;8.48;3.85;;;;;;;3.42;60.54;97597.38;4964814;28;20419;-76
2022/04/02 11:57:56;;;;;;;8.52;3.53;;;;;;;3.33;60.90;97589.06;4953688;28;20047;-76
2022/04/02 12:00:26;;;;;;;7.90;3.50;;;;;;;3.40;60.81;97581.47;4971548;28;20422;-75
2022/04/02 12:02:53;;;;;;;7.50;3.60;;;;;;;3.36;60.87;97569.63;4972773;28;20137;-75
2022/04/02 12:05:22;;;;;;;8.15;3.40;;;;;;;3.42;61.01;97564.19;4971972;28;20058;-74
2022/04/02 12:07:50;;;;;;;7.57;3.60;;;;;;;3.42;60.72;97545.25;4972716;28;20449;-73
2022/04/02 12:10:19;;;;;;;9.23;3.63;;;;;;;3.32;61.22;97536.16;4969976;28;20161;-74
2022/04/02 12:12:46;;;;;;;8.82;3.25;;;;;;;3.25;61.51;97527.56;4972168;28;20127;-74